createdAt,value
2023-03-14T00:01:00.378Z,98865.25
2023-03-14T00:03:29.377Z,98866.28
2023-03-14T00:05:55.905Z,98861.88
2023-03-14T00:08:22.529Z,98863.97
2023-03-14T00:10:49.021Z,98853.50
2023-03-14T00:13:15.602Z,98860.56
2023-03-14T00:15:42.353Z,98868.94
2023-03-14T00:18:08.901Z,98861.34
2023-03-14T00:20:35.574Z,98864.75
2023-03-14T00:23:03.477Z,98867.34
2023-03-14T00:25:29.964Z,98865.25
2023-03-14T00:27:56.468Z,98859.50
2023-03-14T00:30:23.019Z,98851.41
2023-03-14T00:32:49.647Z,98854.81
2023-03-14T00:35:16.423Z,98850.88
2023-03-14T00:37:43.071Z,98845.38
2023-03-14T00:40:10.363Z,98842.50
2023-03-14T00:42:36.962Z,98827.34
2023-03-14T00:45:04.843Z,98825.50
2023-03-14T00:47:31.375Z,98831.78
2023-03-14T00:49:58.180Z,98835.97
2023-03-14T00:52:24.808Z,98811.38
2023-03-14T00:54:51.356Z,98807.94
2023-03-14T00:57:17.913Z,98816.56
2023-03-14T00:59:44.423Z,98801.41
2023-03-14T01:02:11.195Z,98815.28
2023-03-14T01:04:38.765Z,98809.78
2023-03-14T01:07:05.297Z,98802.44
2023-03-14T01:09:31.875Z,98807.94
2023-03-14T01:11:58.700Z,98786.47
2023-03-14T01:14:25.241Z,98801.09
2023-03-14T01:16:51.811Z,98795.09
2023-03-14T01:19:18.337Z,98813.16
2023-03-14T01:21:44.952Z,98795.34
2023-03-14T01:24:12.507Z,98789.34
2023-03-14T01:26:39.019Z,98779.66
2023-03-14T01:29:05.643Z,98775.22
2023-03-14T01:31:32.417Z,98754.00
2023-03-14T01:33:59.124Z,98755.84
2023-03-14T01:36:25.660Z,98744.09
2023-03-14T01:38:52.319Z,98733.38
2023-03-14T01:41:25.193Z,98730.50
2023-03-14T01:43:52.269Z,98697.53
2023-03-14T01:46:23.293Z,98684.97
2023-03-14T01:49:11.871Z,98642.09
2023-03-14T01:52:02.286Z,98626.66
2023-03-14T01:54:35.357Z,98593.97
2023-03-14T01:57:15.765Z,98596.06
2023-03-14T01:59:47.184Z,98623.00
2023-03-14T02:02:15.443Z,98646.28
2023-03-14T02:04:42.679Z,98668.53
2023-03-14T02:07:32.349Z,98692.63
2023-03-14T02:10:01.292Z,98703.34
2023-03-14T02:12:28.209Z,98700.75
2023-03-14T02:14:54.749Z,98702.84
2023-03-14T02:17:23.442Z,98695.78
2023-03-14T02:20:24.236Z,98682.19
2023-03-14T02:22:51.082Z,98680.91
2023-03-14T02:25:36.213Z,98682.97
2023-03-14T02:28:03.000Z,98685.06
2023-03-14T02:30:32.086Z,98686.13
2023-03-14T02:33:00.825Z,98681.66
2023-03-14T02:35:33.189Z,98685.06
2023-03-14T02:38:30.574Z,98685.06
2023-03-14T02:40:57.084Z,98684.28
2023-03-14T02:43:23.968Z,98692.66
2023-03-14T02:45:52.042Z,98699.44
2023-03-14T02:48:26.186Z,98703.91
2023-03-14T02:50:56.611Z,98699.16
2023-03-14T02:53:27.578Z,98685.88
2023-03-14T02:55:54.183Z,98674.09
2023-03-14T02:58:21.695Z,98667.53
2023-03-14T03:00:48.697Z,98667.81
2023-03-14T03:03:15.657Z,98663.91
2023-03-14T03:05:43.558Z,98658.94
2023-03-14T03:08:10.850Z,98668.06
2023-03-14T03:10:37.430Z,98667.03
2023-03-14T03:13:03.948Z,98673.28
2023-03-14T03:15:30.643Z,98695.72
2023-03-14T03:17:57.213Z,98686.34
2023-03-14T03:20:23.727Z,98694.44
2023-03-14T03:22:50.928Z,98692.09
2023-03-14T03:25:17.637Z,98688.16
2023-03-14T03:27:44.206Z,98688.41
2023-03-14T03:30:11.402Z,98690.50
2023-03-14T03:32:38.004Z,98680.31
2023-03-14T03:35:05.608Z,98677.97
2023-03-14T03:37:33.277Z,98673.00
2023-03-14T03:40:00.100Z,98659.66
2023-03-14T03:42:27.976Z,98656.19
2023-03-14T03:44:54.608Z,98654.06
2023-03-14T03:47:21.173Z,98653.78
2023-03-14T03:49:47.679Z,98646.44
2023-03-14T03:52:14.258Z,98636.00
2023-03-14T03:54:40.856Z,98625.78
2023-03-14T03:57:07.441Z,98623.69
2023-03-14T03:59:33.966Z,98622.88
2023-03-14T04:02:00.627Z,98620.50
2023-03-14T04:04:27.295Z,98616.56
2023-03-14T04:06:53.948Z,98618.09
2023-03-14T04:09:20.444Z,98621.19
2023-03-14T04:11:46.976Z,98605.03
2023-03-14T04:14:13.468Z,98606.31
2023-03-14T04:16:40.018Z,98601.06
2023-03-14T04:19:06.554Z,98600.53
2023-03-14T04:21:33.071Z,98608.00
2023-03-14T04:23:59.778Z,98627.75
2023-03-14T04:26:26.378Z,98626.91
2023-03-14T04:28:52.953Z,98632.06
2023-03-14T04:31:21.667Z,98624.47
2023-03-14T04:33:48.576Z,98615.81
2023-03-14T04:36:15.514Z,98617.38
2023-03-14T04:38:42.322Z,98607.16
2023-03-14T04:41:08.875Z,98597.22
2023-03-14T04:43:35.527Z,98586.53
2023-03-14T04:46:02.048Z,98594.59
2023-03-14T04:48:29.222Z,98588.56
2023-03-14T04:50:56.095Z,98590.31
2023-03-14T04:53:22.875Z,98593.94
2023-03-14T04:55:54.091Z,98586.66
2023-03-14T04:58:21.810Z,98578.84
2023-03-14T05:00:48.925Z,98586.06
2023-03-14T05:03:16.860Z,98582.38
2023-03-14T05:05:43.736Z,98586.69
2023-03-14T05:08:10.581Z,98601.97
2023-03-14T05:10:37.267Z,98591.03
2023-03-14T05:13:04.479Z,98594.97
2023-03-14T05:15:31.259Z,98598.88
2023-03-14T05:17:58.001Z,98604.84
2023-03-14T05:20:24.528Z,98602.47
2023-03-14T05:22:51.060Z,98601.97
2023-03-14T05:25:17.593Z,98601.72
2023-03-14T05:27:44.118Z,98600.97
2023-03-14T05:30:11.462Z,98595.53
2023-03-14T05:32:38.043Z,98597.91
2023-03-14T05:35:04.917Z,98589.88
2023-03-14T05:37:31.436Z,98595.13
2023-03-14T05:39:57.971Z,98600.38
2023-03-14T05:42:24.544Z,98603.03
2023-03-14T05:44:51.060Z,98604.91
2023-03-14T05:47:17.647Z,98590.09
2023-03-14T05:49:44.240Z,98591.72
2023-03-14T05:52:10.864Z,98580.03
2023-03-14T05:54:37.388Z,98587.66
2023-03-14T05:57:03.987Z,98587.97
2023-03-14T05:59:30.506Z,98581.72
2023-03-14T06:01:57.145Z,98576.25
2023-03-14T06:04:23.812Z,98594.75
2023-03-14T06:06:50.406Z,98586.72
2023-03-14T06:09:17.114Z,98588.03
2023-03-14T06:11:43.803Z,98595.09
2023-03-14T06:14:10.502Z,98600.31
2023-03-14T06:16:37.062Z,98598.53
2023-03-14T06:19:03.672Z,98607.94
2023-03-14T06:21:30.758Z,98609.28
2023-03-14T06:23:57.360Z,98602.03
2023-03-14T06:26:24.502Z,98607.81
2023-03-14T06:28:52.020Z,98612.03
2023-03-14T06:31:21.577Z,98606.84
2023-03-14T06:33:48.280Z,98593.28
2023-03-14T06:36:14.858Z,98603.25
2023-03-14T06:38:41.422Z,98601.97
2023-03-14T06:41:08.588Z,98589.47
2023-03-14T06:43:35.218Z,98591.81
2023-03-14T06:46:01.942Z,98591.31
2023-03-14T06:48:28.591Z,98587.38
2023-03-14T06:50:55.868Z,98597.28
2023-03-14T06:53:22.577Z,98600.41
2023-03-14T06:55:49.330Z,98585.78
2023-03-14T06:58:15.977Z,98578.97
2023-03-14T07:00:42.898Z,98575.81
2023-03-14T07:03:13.288Z,98573.69
2023-03-14T07:05:41.535Z,98568.94
2023-03-14T07:08:09.280Z,98565.00
2023-03-14T07:10:35.874Z,98566.53
2023-03-14T07:13:02.683Z,98551.06
2023-03-14T07:15:29.398Z,98565.47
2023-03-14T07:17:56.061Z,98566.75
2023-03-14T07:20:23.131Z,98563.06
2023-03-14T07:22:51.163Z,98561.44
2023-03-14T07:25:18.410Z,98571.09
2023-03-14T07:27:46.269Z,98553.81
2023-03-14T07:30:13.514Z,98572.38
2023-03-14T07:32:40.329Z,98562.66
2023-03-14T07:35:07.744Z,98557.38
2023-03-14T07:37:34.327Z,98555.00
2023-03-14T07:40:00.868Z,98550.50
2023-03-14T07:42:27.467Z,98557.78
2023-03-14T07:44:54.065Z,98568.44
2023-03-14T07:47:20.797Z,98565.25
2023-03-14T07:49:47.385Z,98573.59
2023-03-14T07:52:14.209Z,98572.75
2023-03-14T07:54:40.866Z,98565.88
2023-03-14T07:57:07.614Z,98572.06
2023-03-14T07:59:34.246Z,98554.16
2023-03-14T08:02:00.952Z,98562.69
2023-03-14T08:04:28.420Z,98550.03
2023-03-14T08:06:55.492Z,98553.38
2023-03-14T08:09:22.222Z,98554.94
2023-03-14T08:11:48.757Z,98571.91
2023-03-14T08:14:15.377Z,98573.91
2023-03-14T08:16:41.951Z,98574.28
2023-03-14T08:19:08.478Z,98591.56
2023-03-14T08:21:35.124Z,98593.03
2023-03-14T08:24:01.800Z,98590.94
2023-03-14T08:26:28.509Z,98595.44
2023-03-14T08:28:55.110Z,98587.81
2023-03-14T08:31:22.013Z,98575.97
2023-03-14T08:33:48.726Z,98581.94
2023-03-14T08:36:15.441Z,98583.94
2023-03-14T08:38:43.581Z,98592.25
2023-03-14T08:41:10.742Z,98585.81
2023-03-14T08:43:37.336Z,98587.16
2023-03-14T08:46:04.547Z,98573.91
2023-03-14T08:48:31.669Z,98577.03
2023-03-14T08:51:09.609Z,98575.25
2023-03-14T08:53:36.217Z,98578.09
2023-03-14T08:56:02.941Z,98591.50
2023-03-14T08:58:30.408Z,98588.56
2023-03-14T09:00:57.578Z,98577.47
2023-03-14T09:03:24.754Z,98597.59
2023-03-14T09:05:52.586Z,98582.66
2023-03-14T09:08:19.231Z,98571.47
2023-03-14T09:10:45.863Z,98583.72
2023-03-14T09:13:12.481Z,98578.81
2023-03-14T09:15:39.844Z,98571.78
2023-03-14T09:18:06.496Z,98571.78
2023-03-14T09:20:33.147Z,98576.50
2023-03-14T09:22:59.689Z,98575.03
2023-03-14T09:25:26.272Z,98571.56
2023-03-14T09:27:52.804Z,98579.06
2023-03-14T09:30:19.454Z,98584.91
2023-03-14T09:32:46.378Z,98585.56
2023-03-14T09:35:12.988Z,98583.53
2023-03-14T09:37:39.875Z,98580.19
2023-03-14T09:40:11.720Z,98577.38
2023-03-14T09:42:40.383Z,98572.16
2023-03-14T09:45:13.804Z,98581.88
2023-03-14T09:47:52.605Z,98586.88
2023-03-14T09:50:26.733Z,98590.06
2023-03-14T09:53:03.094Z,98584.50
2023-03-14T09:55:29.752Z,98580.38
2023-03-14T09:58:01.292Z,98579.69
2023-03-14T10:00:31.626Z,98583.53
2023-03-14T10:03:15.120Z,98588.13
2023-03-14T10:05:42.868Z,98581.63
2023-03-14T10:08:13.622Z,98578.91
2023-03-14T10:10:40.722Z,98583.16
2023-03-14T10:13:27.122Z,98575.38
2023-03-14T10:16:02.544Z,98585.28
2023-03-14T10:18:32.778Z,98588.03
2023-03-14T10:21:08.715Z,98586.97
2023-03-14T10:23:36.823Z,98576.66
2023-03-14T10:26:10.046Z,98581.34
2023-03-14T10:28:48.455Z,98576.66
2023-03-14T10:31:16.235Z,98583.97
2023-03-14T10:33:43.503Z,98573.84
2023-03-14T10:36:24.069Z,98581.44
2023-03-14T10:38:50.959Z,98582.91
2023-03-14T10:41:24.801Z,98588.31
2023-03-14T10:43:54.583Z,98590.25
2023-03-14T10:46:21.672Z,98578.72
2023-03-14T10:48:50.665Z,98581.63
2023-03-14T10:51:25.225Z,98595.09
2023-03-14T10:54:13.610Z,98588.19
2023-03-14T10:56:40.261Z,98575.81
2023-03-14T10:59:16.523Z,98579.91
2023-03-14T11:01:53.133Z,98586.44
2023-03-14T11:04:28.606Z,98591.78
2023-03-14T11:06:55.095Z,98588.06
2023-03-14T11:09:34.075Z,98583.66
2023-03-14T11:12:38.165Z,98593.28
2023-03-14T11:15:33.769Z,98589.72
2023-03-14T11:18:34.197Z,98592.66
2023-03-14T11:21:22.594Z,98584.28
2023-03-14T11:24:04.106Z,98579.69
2023-03-14T11:26:52.631Z,98590.34
2023-03-14T11:29:38.001Z,98578.63
2023-03-14T11:32:14.330Z,98583.25
2023-03-14T11:34:52.625Z,98577.63
2023-03-14T11:37:37.501Z,98579.34
2023-03-14T11:40:15.796Z,98563.03
2023-03-14T11:42:45.333Z,98562.25
2023-03-14T11:45:20.034Z,98566.25
2023-03-14T11:47:54.004Z,98563.47
2023-03-14T11:50:25.469Z,98560.53
2023-03-14T11:52:59.321Z,98555.13
2023-03-14T11:55:28.919Z,98551.22
2023-03-14T11:58:02.823Z,98543.53
2023-03-14T12:00:30.619Z,98540.41
2023-03-14T12:03:11.954Z,98539.25
2023-03-14T12:06:20.913Z,98533.53
2023-03-14T12:09:01.362Z,98533.13
2023-03-14T12:11:43.436Z,98533.38
2023-03-14T12:14:28.161Z,98526.97
2023-03-14T12:17:03.704Z,98532.97
2023-03-14T12:19:32.691Z,98538.53
2023-03-14T12:22:09.715Z,98545.28
2023-03-14T12:24:38.602Z,98531.16
2023-03-14T12:27:09.881Z,98539.06
2023-03-14T12:30:03.290Z,98532.66
2023-03-14T12:32:33.247Z,98534.13
2023-03-14T12:35:28.193Z,98537.00
2023-03-14T12:37:58.154Z,98534.59
2023-03-14T12:40:34.149Z,98530.00
2023-03-14T12:43:04.288Z,98534.69
2023-03-14T12:45:32.954Z,98538.75
2023-03-14T12:48:03.414Z,98525.56
2023-03-14T12:50:35.355Z,98532.81
2023-03-14T12:53:46.076Z,98532.81
2023-03-14T12:56:18.742Z,98535.16
2023-03-14T12:58:49.603Z,98527.00
2023-03-14T13:01:20.056Z,98533.72
2023-03-14T13:03:52.068Z,98531.94
2023-03-14T13:06:46.587Z,98531.03
2023-03-14T13:09:56.670Z,98535.66
2023-03-14T13:12:37.649Z,98535.16
2023-03-14T13:15:14.353Z,98539.78
2023-03-14T13:17:42.318Z,98528.03
2023-03-14T13:20:24.023Z,98533.31
2023-03-14T13:22:50.968Z,98536.00
2023-03-14T13:25:19.368Z,98527.72
2023-03-14T13:27:46.069Z,98529.31
2023-03-14T13:30:28.060Z,98537.94
2023-03-14T13:32:56.143Z,98543.03
2023-03-14T13:35:29.048Z,98538.56
2023-03-14T13:38:11.200Z,98542.25
2023-03-14T13:40:39.090Z,98541.31
2023-03-14T13:43:32.043Z,98544.03
2023-03-14T13:46:08.060Z,98536.81
2023-03-14T13:48:43.225Z,98536.16
2023-03-14T13:51:14.295Z,98529.09
2023-03-14T13:53:47.904Z,98526.69
2023-03-14T13:56:14.828Z,98523.66
2023-03-14T13:58:42.164Z,98519.16
2023-03-14T14:01:19.726Z,98525.78
2023-03-14T14:03:52.110Z,98538.09
2023-03-14T14:06:31.357Z,98534.88
2023-03-14T14:09:01.969Z,98531.44
2023-03-14T14:11:59.242Z,98534.44
2023-03-14T14:14:54.763Z,98529.16
2023-03-14T14:17:27.246Z,98533.75
2023-03-14T14:19:54.981Z,98521.50
2023-03-14T14:22:21.756Z,98526.09
2023-03-14T14:24:48.963Z,98519.69
2023-03-14T14:27:27.324Z,98513.50
2023-03-14T14:30:18.589Z,98516.75
2023-03-14T14:32:47.618Z,98521.03
2023-03-14T14:35:35.174Z,98525.09
2023-03-14T14:38:02.715Z,98542.22
2023-03-14T14:40:31.012Z,98540.22
2023-03-14T14:43:05.720Z,98545.06
2023-03-14T14:45:36.044Z,98542.25
2023-03-14T14:48:02.609Z,98540.84
2023-03-14T14:50:32.217Z,98539.69
2023-03-14T14:53:00.690Z,98529.25
2023-03-14T14:55:35.829Z,98527.97
2023-03-14T14:58:22.517Z,98524.44
2023-03-14T15:01:06.141Z,98530.22
2023-03-14T15:03:34.688Z,98529.41
2023-03-14T15:06:02.862Z,98535.34
2023-03-14T15:08:29.489Z,98538.31
2023-03-14T15:10:57.734Z,98537.72
2023-03-14T15:13:24.569Z,98535.44
2023-03-14T15:15:58.543Z,98535.94
2023-03-14T15:18:31.401Z,98529.59
2023-03-14T15:20:58.193Z,98530.88
2023-03-14T15:23:25.224Z,98529.03
2023-03-14T15:25:55.846Z,98527.56
2023-03-14T15:28:28.580Z,98518.59
2023-03-14T15:30:59.859Z,98524.78
2023-03-14T15:33:27.354Z,98529.25
2023-03-14T15:35:54.932Z,98525.56
2023-03-14T15:38:23.899Z,98523.44
2023-03-14T15:40:51.973Z,98517.53
2023-03-14T15:43:19.806Z,98513.72
2023-03-14T15:45:46.793Z,98511.78
2023-03-14T15:48:16.998Z,98512.34
2023-03-14T15:50:44.537Z,98504.84
2023-03-14T15:53:12.079Z,98511.72
2023-03-14T15:55:38.822Z,98509.31
2023-03-14T15:58:05.640Z,98509.38
2023-03-14T16:00:33.153Z,98502.84
2023-03-14T16:02:59.709Z,98507.09
2023-03-14T16:05:26.390Z,98511.13
2023-03-14T16:07:53.097Z,98507.00
2023-03-14T16:10:19.753Z,98495.56
2023-03-14T16:12:46.661Z,98500.94
2023-03-14T16:15:13.212Z,98503.84
2023-03-14T16:17:41.131Z,98503.06
2023-03-14T16:20:08.803Z,98503.66
2023-03-14T16:22:35.830Z,98502.69
2023-03-14T16:25:07.489Z,98510.09
2023-03-14T16:27:34.064Z,98503.91
2023-03-14T16:30:00.750Z,98504.97
2023-03-14T16:32:27.754Z,98506.84
2023-03-14T16:34:54.519Z,98508.69
2023-03-14T16:37:23.182Z,98507.97
2023-03-14T16:40:11.252Z,98519.25
2023-03-14T16:42:40.837Z,98510.69
2023-03-14T16:45:13.526Z,98519.84
2023-03-14T16:47:40.089Z,98517.78
2023-03-14T16:50:07.029Z,98512.88
2023-03-14T16:52:33.570Z,98516.31
2023-03-14T16:55:00.254Z,98517.88
2023-03-14T16:57:26.830Z,98518.97
2023-03-14T16:59:53.413Z,98516.34
2023-03-14T17:02:20.164Z,98524.19
2023-03-14T17:04:46.750Z,98529.16
2023-03-14T17:07:13.406Z,98533.91
2023-03-14T17:09:39.946Z,98540.97
2023-03-14T17:12:07.118Z,98540.19
2023-03-14T17:14:33.678Z,98557.53
2023-03-14T17:17:01.712Z,98554.91
2023-03-14T17:19:28.559Z,98561.47
2023-03-14T17:22:09.283Z,98562.28
2023-03-14T17:24:40.504Z,98566.22
2023-03-14T17:27:07.062Z,98576.16
2023-03-14T17:29:33.771Z,98588.75
2023-03-14T17:32:00.300Z,98593.25
2023-03-14T17:34:26.873Z,98601.16
2023-03-14T17:36:53.418Z,98596.22
2023-03-14T17:39:19.970Z,98590.03
2023-03-14T17:41:48.019Z,98594.03
2023-03-14T17:44:14.591Z,98595.38
2023-03-14T17:46:41.371Z,98597.47
2023-03-14T17:49:08.007Z,98591.25
2023-03-14T17:51:34.578Z,98601.47
2023-03-14T17:54:01.145Z,98598.59
2023-03-14T17:56:27.705Z,98598.34
2023-03-14T17:58:57.105Z,98589.97
2023-03-14T18:01:24.246Z,98592.59
2023-03-14T18:03:56.262Z,98592.59
2023-03-14T18:06:23.592Z,98599.63
2023-03-14T18:08:51.448Z,98597.00
2023-03-14T18:11:18.436Z,98600.16
2023-03-14T18:13:45.803Z,98598.56
2023-03-14T18:16:16.119Z,98603.50
2023-03-14T18:18:47.057Z,98607.66
2023-03-14T18:21:16.457Z,98609.75
2023-03-14T18:23:43.222Z,98606.34
2023-03-14T18:26:10.904Z,98605.53
2023-03-14T18:28:37.953Z,98609.44
2023-03-14T18:31:11.764Z,98610.47
2023-03-14T18:33:40.403Z,98611.25
2023-03-14T18:36:12.215Z,98613.06
2023-03-14T18:38:43.612Z,98616.44
2023-03-14T18:41:12.836Z,98613.56
2023-03-14T18:43:39.887Z,98608.59
2023-03-14T18:46:06.507Z,98607.81
2023-03-14T18:48:33.620Z,98602.84
2023-03-14T18:51:01.005Z,98609.06
2023-03-14T18:53:32.433Z,98614.78
2023-03-14T18:56:02.782Z,98616.56
2023-03-14T18:58:29.624Z,98611.88
2023-03-14T19:01:01.613Z,98612.38
2023-03-14T19:03:30.065Z,98615.47
2023-03-14T19:06:00.719Z,98624.59
2023-03-14T19:08:29.647Z,98623.75
2023-03-14T19:11:01.029Z,98627.41
2023-03-14T19:13:27.920Z,98625.09
2023-03-14T19:15:54.803Z,98623.00
2023-03-14T19:18:21.493Z,98629.00
2023-03-14T19:21:03.633Z,98627.97
2023-03-14T19:23:31.882Z,98628.50
2023-03-14T19:25:58.661Z,98626.69
2023-03-14T19:28:25.972Z,98627.22
2023-03-14T19:30:52.773Z,98630.63
2023-03-14T19:33:19.854Z,98646.31
2023-03-14T19:35:47.294Z,98740.47
2023-03-14T19:38:14.519Z,98774.81
2023-03-14T19:40:43.032Z,98851.06
2023-03-14T19:43:11.059Z,98863.84
2023-03-14T19:45:37.799Z,98894.28
2023-03-14T19:48:06.791Z,98924.03
2023-03-14T19:50:35.562Z,98948.09
2023-03-14T19:53:04.283Z,98966.72
2023-03-14T19:55:35.470Z,98972.69
2023-03-14T19:58:03.792Z,99015.22
2023-03-14T20:00:30.417Z,98994.81
2023-03-14T20:02:57.283Z,99015.66
2023-03-14T20:05:25.135Z,99037.25
2023-03-14T20:07:51.849Z,99062.06
2023-03-14T20:10:22.841Z,99074.41
2023-03-14T20:12:51.124Z,99083.41
2023-03-14T20:15:19.609Z,99092.72
2023-03-14T20:17:49.828Z,99101.19
2023-03-14T20:20:16.831Z,99113.03
2023-03-14T20:22:43.983Z,99144.31
2023-03-14T20:25:13.685Z,99154.94
2023-03-14T20:27:41.425Z,99159.47
2023-03-14T20:30:12.781Z,99173.50
2023-03-14T20:32:41.015Z,99188.69
2023-03-14T20:35:11.511Z,99231.03
2023-03-14T20:37:39.294Z,99206.22
2023-03-14T20:40:15.804Z,99225.19
2023-03-14T20:42:42.493Z,99240.72
2023-03-14T20:45:09.448Z,99260.50
2023-03-14T20:47:36.012Z,99266.66
2023-03-14T20:50:03.691Z,99266.66
2023-03-14T20:52:30.760Z,99288.22
2023-03-14T20:54:59.544Z,99297.53
2023-03-14T20:57:26.909Z,99305.84
2023-03-14T20:59:53.453Z,99299.09
2023-03-14T21:02:20.175Z,99320.50
2023-03-14T21:04:47.270Z,99326.00
2023-03-14T21:07:14.194Z,99351.34
2023-03-14T21:09:41.677Z,99363.25
2023-03-14T21:12:08.326Z,99371.13
2023-03-14T21:14:35.106Z,99381.72
2023-03-14T21:17:01.677Z,99394.00
2023-03-14T21:19:33.015Z,99408.28
2023-03-14T21:22:05.238Z,99424.75
2023-03-14T21:24:34.467Z,99426.38
2023-03-14T21:27:01.187Z,99438.25
2023-03-14T21:29:27.866Z,99450.13
2023-03-14T21:31:54.568Z,99466.19
2023-03-14T21:34:25.192Z,99470.63
2023-03-14T21:36:52.221Z,99465.28
2023-03-14T21:39:18.746Z,99478.78
2023-03-14T21:41:45.902Z,99480.97
2023-03-14T21:44:16.153Z,99477.06
2023-03-14T21:46:45.927Z,99473.69
2023-03-14T21:49:14.075Z,99483.63
2023-03-14T21:51:41.355Z,99487.81
2023-03-14T21:54:10.412Z,99490.38
2023-03-14T21:56:37.938Z,99504.22
2023-03-14T21:59:05.007Z,99523.03
2023-03-14T22:01:32.562Z,99506.59
2023-03-14T22:04:00.151Z,99515.94
2023-03-14T22:06:27.985Z,99521.72
2023-03-14T22:08:57.318Z,99524.88
2023-03-14T22:11:25.069Z,99531.81
2023-03-14T22:13:51.854Z,99529.25
2023-03-14T22:16:21.484Z,99541.13
2023-03-14T22:18:48.036Z,99554.44
2023-03-14T22:21:14.634Z,99549.09
2023-03-14T22:23:41.289Z,99556.47
2023-03-14T22:26:07.978Z,99561.44
2023-03-14T22:28:34.620Z,99574.16
2023-03-14T22:31:03.342Z,99571.38
2023-03-14T22:33:31.386Z,99585.84
2023-03-14T22:35:58.196Z,99597.59
2023-03-14T22:38:25.170Z,99593.22
2023-03-14T22:40:51.913Z,99572.59
2023-03-14T22:43:18.648Z,99581.31
2023-03-14T22:45:45.856Z,99589.66
2023-03-14T22:48:12.723Z,99596.78
2023-03-14T22:50:40.304Z,99588.44
2023-03-14T22:53:07.017Z,99604.06
2023-03-14T22:55:33.809Z,99595.19
2023-03-14T22:58:01.050Z,99603.50
2023-03-14T23:00:29.351Z,99607.88
2023-03-14T23:02:55.950Z,99612.41
2023-03-14T23:05:23.273Z,99627.25
2023-03-14T23:07:49.834Z,99625.81
2023-03-14T23:10:18.147Z,99634.91
2023-03-14T23:12:48.158Z,99653.88
2023-03-14T23:15:18.482Z,99650.28
2023-03-14T23:17:45.254Z,99663.47
2023-03-14T23:20:12.925Z,99669.97
2023-03-14T23:22:39.534Z,99679.47
2023-03-14T23:25:06.732Z,99689.13
2023-03-14T23:27:33.449Z,99693.50
2023-03-14T23:30:00.220Z,99707.16
2023-03-14T23:32:27.287Z,99703.19
2023-03-14T23:34:54.042Z,99709.66
2023-03-14T23:37:23.488Z,99720.31
2023-03-14T23:39:50.710Z,99735.13
2023-03-14T23:42:17.436Z,99727.41
2023-03-14T23:44:44.117Z,99752.97
2023-03-14T23:47:10.761Z,99754.56
2023-03-14T23:49:37.301Z,99746.50
2023-03-14T23:52:04.131Z,99756.00
2023-03-14T23:54:30.687Z,99757.44
2023-03-14T23:56:57.261Z,99761.75
2023-03-14T23:59:23.996Z,99755.63
